createdAt,value
2023-05-07T00:00:12.783Z,23.01
2023-05-07T00:02:40.140Z,22.99
2023-05-07T00:05:08.777Z,23.04
2023-05-07T00:07:36.727Z,23.03
2023-05-07T00:10:05.297Z,23.14
2023-05-07T00:12:34.804Z,23.08
2023-05-07T00:15:05.214Z,22.84
2023-05-07T00:17:34.536Z,23.02
2023-05-07T00:20:02.724Z,23.06
2023-05-07T00:22:31.388Z,23.08
2023-05-07T00:24:58.461Z,22.87
2023-05-07T00:27:26.292Z,23.07
2023-05-07T00:29:56.636Z,23.07
2023-05-07T00:32:24.743Z,23.03
2023-05-07T00:34:52.199Z,23.08
2023-05-07T00:37:19.470Z,23.18
2023-05-07T00:39:46.503Z,23.10
2023-05-07T00:42:13.750Z,23.12
2023-05-07T00:44:40.903Z,23.16
2023-05-07T00:47:08.522Z,22.88
2023-05-07T00:49:43.947Z,23.06
2023-05-07T00:52:18.406Z,23.04
2023-05-07T00:54:45.935Z,23.02
2023-05-07T00:57:13.284Z,23.00
2023-05-07T00:59:41.922Z,22.84
2023-05-07T01:02:09.349Z,22.90
2023-05-07T01:04:36.941Z,22.96
2023-05-07T01:07:05.927Z,22.96
2023-05-07T01:09:33.256Z,22.92
2023-05-07T01:12:00.899Z,22.98
2023-05-07T01:14:28.460Z,22.84
2023-05-07T01:16:56.020Z,22.68
2023-05-07T01:19:25.684Z,22.65
2023-05-07T01:22:01.347Z,22.88
2023-05-07T01:24:31.293Z,22.93
2023-05-07T01:26:58.579Z,22.90
2023-05-07T01:29:25.904Z,22.90
2023-05-07T01:31:54.230Z,22.92
2023-05-07T01:34:23.040Z,22.84
2023-05-07T01:36:50.974Z,22.94
2023-05-07T01:39:18.502Z,22.88
2023-05-07T01:41:47.315Z,22.98
2023-05-07T01:44:16.140Z,22.93
2023-05-07T01:46:43.775Z,22.89
2023-05-07T01:49:11.490Z,22.97
2023-05-07T01:51:38.771Z,22.97
2023-05-07T01:54:06.501Z,23.01
2023-05-07T01:56:34.885Z,22.91
2023-05-07T01:59:03.259Z,22.98
2023-05-07T02:01:31.152Z,22.81
2023-05-07T02:03:58.840Z,22.77
2023-05-07T02:06:28.711Z,22.95
2023-05-07T02:09:00.789Z,22.98
2023-05-07T02:11:28.866Z,22.93
2023-05-07T02:13:55.914Z,22.92
2023-05-07T02:16:24.461Z,22.82
2023-05-07T02:18:52.474Z,22.97
2023-05-07T02:21:19.865Z,22.90
2023-05-07T02:23:46.996Z,22.84
2023-05-07T02:26:14.218Z,22.90
2023-05-07T02:28:41.369Z,22.87
2023-05-07T02:31:08.575Z,22.91
2023-05-07T02:33:37.608Z,22.95
2023-05-07T02:36:11.849Z,22.85
2023-05-07T02:38:51.411Z,22.84
2023-05-07T02:41:20.845Z,22.85
2023-05-07T02:43:50.305Z,22.80
2023-05-07T02:46:18.433Z,22.80
2023-05-07T02:48:50.283Z,22.82
2023-05-07T02:51:23.320Z,22.77
2023-05-07T02:53:52.309Z,22.75
2023-05-07T02:56:19.585Z,22.86
2023-05-07T02:58:46.764Z,22.67
2023-05-07T03:01:16.065Z,22.85
2023-05-07T03:04:03.562Z,22.81
2023-05-07T03:06:30.836Z,22.78
2023-05-07T03:08:57.842Z,22.80
2023-05-07T03:11:27.340Z,22.83
2023-05-07T03:13:54.503Z,22.83
2023-05-07T03:16:22.783Z,22.73
2023-05-07T03:18:50.018Z,22.74
2023-05-07T03:21:17.246Z,22.78
2023-05-07T03:23:45.009Z,22.86
2023-05-07T03:26:12.328Z,22.77
2023-05-07T03:28:39.704Z,22.62
2023-05-07T03:31:11.314Z,22.55
2023-05-07T03:33:50.387Z,22.72
2023-05-07T03:36:17.374Z,22.76
2023-05-07T03:38:44.437Z,22.69
2023-05-07T03:41:11.859Z,22.73
2023-05-07T03:43:39.672Z,22.81
2023-05-07T03:46:10.509Z,22.73
2023-05-07T03:48:37.623Z,22.58
2023-05-07T03:51:05.193Z,22.61
2023-05-07T03:53:34.027Z,22.70
2023-05-07T03:56:01.361Z,22.67
2023-05-07T03:58:36.110Z,22.55
2023-05-07T04:01:08.742Z,22.48
2023-05-07T04:03:36.262Z,22.35
2023-05-07T04:06:04.873Z,22.51
2023-05-07T04:08:34.929Z,22.54
2023-05-07T04:11:02.459Z,22.57
2023-05-07T04:13:32.473Z,22.56
2023-05-07T04:16:03.689Z,22.52
2023-05-07T04:18:31.008Z,22.45
2023-05-07T04:20:58.598Z,22.26
2023-05-07T04:23:25.865Z,22.33
2023-05-07T04:25:53.729Z,22.36
2023-05-07T04:28:25.675Z,22.17
2023-05-07T04:30:52.948Z,22.28
2023-05-07T04:33:21.700Z,22.32
2023-05-07T04:35:50.605Z,22.28
2023-05-07T04:38:17.658Z,22.33
2023-05-07T04:40:46.095Z,22.31
2023-05-07T04:43:17.334Z,22.29
2023-05-07T04:45:51.992Z,22.36
2023-05-07T04:48:21.595Z,22.29
2023-05-07T04:50:53.974Z,22.31
2023-05-07T04:53:22.587Z,22.23
2023-05-07T04:55:56.824Z,22.29
2023-05-07T04:58:25.334Z,22.33
2023-05-07T05:00:53.323Z,22.40
2023-05-07T05:03:23.504Z,22.38
2023-05-07T05:05:52.747Z,22.35
2023-05-07T05:08:21.191Z,22.40
2023-05-07T05:10:50.009Z,22.46
2023-05-07T05:13:17.278Z,22.46
2023-05-07T05:15:44.680Z,22.46
2023-05-07T05:18:11.986Z,22.46
2023-05-07T05:20:40.157Z,22.50
2023-05-07T05:23:09.243Z,22.42
2023-05-07T05:25:38.446Z,22.48
2023-05-07T05:28:05.847Z,22.51
2023-05-07T05:30:34.587Z,22.44
2023-05-07T05:33:02.787Z,22.58
2023-05-07T05:35:30.949Z,22.40
2023-05-07T05:37:59.262Z,22.46
2023-05-07T05:40:26.336Z,22.53
2023-05-07T05:42:54.172Z,22.65
2023-05-07T05:45:21.377Z,22.64
2023-05-07T05:50:15.452Z,22.67
2023-05-07T05:52:43.207Z,22.57
2023-05-07T05:55:10.873Z,22.69
2023-05-07T05:57:39.201Z,22.70
2023-05-07T06:00:07.605Z,22.66
2023-05-07T06:02:46.073Z,22.76
2023-05-07T06:05:18.284Z,22.81
2023-05-07T06:07:48.687Z,22.80
2023-05-07T06:10:16.487Z,22.93
2023-05-07T06:12:43.654Z,22.97
2023-05-07T06:15:11.634Z,22.89
2023-05-07T06:17:39.212Z,23.10
2023-05-07T06:20:07.932Z,23.17
2023-05-07T06:22:35.101Z,23.28
2023-05-07T06:25:02.440Z,23.11
2023-05-07T06:27:29.581Z,23.16
2023-05-07T06:29:57.482Z,23.38
2023-05-07T06:32:24.573Z,23.44
2023-05-07T06:34:52.774Z,23.55
2023-05-07T06:37:20.057Z,23.64
2023-05-07T06:39:53.246Z,23.75
2023-05-07T06:42:20.748Z,23.95
2023-05-07T06:44:49.353Z,23.86
2023-05-07T06:47:18.340Z,23.88
2023-05-07T06:49:49.858Z,23.90
2023-05-07T06:52:19.077Z,23.94
2023-05-07T06:54:47.862Z,23.93
2023-05-07T06:57:17.429Z,24.08
2023-05-07T06:59:44.664Z,23.90
2023-05-07T07:02:12.179Z,24.07
2023-05-07T07:04:39.790Z,23.98
2023-05-07T07:07:10.256Z,23.80
2023-05-07T07:09:37.717Z,23.80
2023-05-07T07:12:06.460Z,23.75
2023-05-07T07:14:35.344Z,23.70
2023-05-07T07:17:02.569Z,23.71
2023-05-07T07:19:29.919Z,23.73
2023-05-07T07:21:58.161Z,23.89
2023-05-07T07:24:25.265Z,23.75
2023-05-07T07:26:56.919Z,23.57
2023-05-07T07:29:27.913Z,23.73
2023-05-07T07:31:56.335Z,23.53
2023-05-07T07:34:24.454Z,23.61
2023-05-07T07:36:51.869Z,23.56
2023-05-07T07:39:20.290Z,23.63
2023-05-07T07:41:50.531Z,23.57
2023-05-07T07:44:19.304Z,23.60
2023-05-07T07:46:52.061Z,23.66
2023-05-07T07:49:21.047Z,23.62
2023-05-07T07:51:48.606Z,23.70
2023-05-07T07:54:16.933Z,23.55
2023-05-07T07:56:44.621Z,23.68
2023-05-07T07:59:15.007Z,23.83
2023-05-07T08:01:42.869Z,23.70
2023-05-07T08:04:10.419Z,23.70
2023-05-07T08:06:41.716Z,23.72
2023-05-07T08:09:10.572Z,23.90
2023-05-07T08:11:40.344Z,23.93
2023-05-07T08:14:07.865Z,24.12
2023-05-07T08:16:35.769Z,23.89
2023-05-07T08:19:03.911Z,24.07
2023-05-07T08:21:34.308Z,24.03
2023-05-07T08:24:02.717Z,24.26
2023-05-07T08:26:30.183Z,24.15
2023-05-07T08:28:57.551Z,24.18
2023-05-07T08:31:25.492Z,24.42
2023-05-07T08:33:52.940Z,24.30
2023-05-07T08:36:20.492Z,24.48
2023-05-07T08:38:48.675Z,24.45
2023-05-07T08:41:19.140Z,24.21
2023-05-07T08:43:51.005Z,24.43
2023-05-07T08:46:23.030Z,24.58
2023-05-07T08:48:54.990Z,24.64
2023-05-07T08:51:23.136Z,24.53
2023-05-07T08:53:51.461Z,25.04
2023-05-07T08:56:26.356Z,25.12
2023-05-07T08:59:00.224Z,25.12
2023-05-07T09:01:29.661Z,25.18
2023-05-07T09:03:58.993Z,25.19
2023-05-07T09:06:28.767Z,24.93
2023-05-07T09:08:56.843Z,24.83
2023-05-07T09:11:28.147Z,24.96
2023-05-07T09:14:02.810Z,25.09
2023-05-07T09:16:35.760Z,25.40
2023-05-07T09:19:03.987Z,25.74
2023-05-07T09:21:31.363Z,26.15
2023-05-07T09:24:01.785Z,26.24
2023-05-07T09:26:36.120Z,26.51
2023-05-07T09:29:05.595Z,26.23
2023-05-07T09:31:32.983Z,26.14
2023-05-07T09:34:02.179Z,26.02
2023-05-07T09:36:34.269Z,26.37
2023-05-07T09:39:02.909Z,26.63
2023-05-07T09:41:33.758Z,26.96
2023-05-07T09:44:13.574Z,27.29
2023-05-07T09:46:48.586Z,27.29
2023-05-07T09:49:26.316Z,27.65
2023-05-07T09:52:02.575Z,27.59
2023-05-07T09:54:39.174Z,27.90
2023-05-07T09:57:10.775Z,27.64
2023-05-07T09:59:39.961Z,27.39
2023-05-07T10:02:11.788Z,27.41
2023-05-07T10:04:50.378Z,26.95
2023-05-07T10:07:22.672Z,27.43
2023-05-07T10:09:54.726Z,27.17
2023-05-07T10:12:40.204Z,26.46
2023-05-07T10:15:14.272Z,26.71
2023-05-07T10:17:46.191Z,25.98
2023-05-07T10:20:14.230Z,26.18
2023-05-07T10:22:48.858Z,26.42
2023-05-07T10:25:24.492Z,26.34
2023-05-07T10:27:53.374Z,26.54
2023-05-07T10:30:47.805Z,26.10
2023-05-07T10:33:18.697Z,26.42
2023-05-07T10:35:52.285Z,26.34
2023-05-07T10:38:20.227Z,25.92
2023-05-07T10:40:48.698Z,25.99
2023-05-07T10:43:19.384Z,26.16
2023-05-07T10:46:17.972Z,25.93
2023-05-07T10:49:09.997Z,25.76
2023-05-07T10:52:27.878Z,26.03
2023-05-07T10:55:20.134Z,25.80
2023-05-07T10:58:32.409Z,25.84
2023-05-07T11:01:11.310Z,25.92
2023-05-07T11:04:16.973Z,26.20
2023-05-07T11:07:10.745Z,25.90
2023-05-07T11:09:53.545Z,25.88
2023-05-07T11:12:38.227Z,26.01
2023-05-07T11:15:17.188Z,26.04
2023-05-07T11:18:01.035Z,26.14
2023-05-07T11:21:00.345Z,26.50
2023-05-07T11:23:48.564Z,25.78
2023-05-07T11:26:22.876Z,25.89
2023-05-07T11:28:50.830Z,25.43
2023-05-07T11:31:25.600Z,25.51
2023-05-07T11:33:54.737Z,25.97
2023-05-07T11:36:24.770Z,26.41
2023-05-07T11:38:54.766Z,25.94
2023-05-07T11:41:23.084Z,26.00
2023-05-07T11:44:00.844Z,26.13
2023-05-07T11:46:29.016Z,26.61
2023-05-07T11:48:57.377Z,26.70
2023-05-07T11:51:27.229Z,26.69
2023-05-07T11:53:54.905Z,26.50
2023-05-07T11:56:22.481Z,26.44
2023-05-07T11:58:50.811Z,26.67
2023-05-07T12:01:17.997Z,26.81
2023-05-07T12:03:47.396Z,26.56
2023-05-07T12:06:17.037Z,26.76
2023-05-07T12:08:47.938Z,26.62
2023-05-07T12:11:25.160Z,26.48
2023-05-07T12:13:53.128Z,26.64
2023-05-07T12:16:21.072Z,26.71
2023-05-07T12:18:48.946Z,26.28
2023-05-07T12:21:18.430Z,26.87
2023-05-07T12:23:46.276Z,27.44
2023-05-07T12:26:13.505Z,27.48
2023-05-07T12:28:41.136Z,27.86
2023-05-07T12:31:10.030Z,27.69
2023-05-07T12:33:37.699Z,27.61
2023-05-07T12:36:08.695Z,26.72
2023-05-07T12:38:41.194Z,26.61
2023-05-07T12:41:10.386Z,26.60
2023-05-07T12:43:37.879Z,26.92
2023-05-07T12:46:07.497Z,27.12
2023-05-07T12:48:35.168Z,27.21
2023-05-07T12:51:03.478Z,27.20
2023-05-07T12:53:32.460Z,26.42
2023-05-07T12:56:01.090Z,27.22
2023-05-07T12:58:30.838Z,27.14
2023-05-07T13:01:01.880Z,26.06
2023-05-07T13:03:37.850Z,25.86
2023-05-07T13:06:13.355Z,26.13
2023-05-07T13:08:46.567Z,24.77
2023-05-07T13:11:14.464Z,24.26
2023-05-07T13:13:43.012Z,24.18
2023-05-07T13:16:12.864Z,24.56
2023-05-07T13:18:42.051Z,24.84
2023-05-07T13:21:09.223Z,24.78
2023-05-07T13:23:36.327Z,24.37
2023-05-07T13:26:08.654Z,24.26
2023-05-07T13:28:42.205Z,24.77
2023-05-07T13:31:09.371Z,24.96
2023-05-07T13:33:36.813Z,25.23
2023-05-07T13:36:06.066Z,25.20
2023-05-07T13:38:33.282Z,24.95
2023-05-07T13:41:01.656Z,24.83
2023-05-07T13:43:28.884Z,24.68
2023-05-07T13:45:56.152Z,24.70
2023-05-07T13:48:23.387Z,24.95
2023-05-07T13:50:50.389Z,25.01
2023-05-07T13:53:19.523Z,25.02
2023-05-07T13:55:46.687Z,25.44
2023-05-07T13:58:14.806Z,25.31
2023-05-07T14:00:41.902Z,24.91
2023-05-07T14:03:12.432Z,25.24
2023-05-07T14:05:39.874Z,24.93
2023-05-07T14:08:07.093Z,24.76
2023-05-07T14:10:38.445Z,25.01
2023-05-07T14:13:05.669Z,25.22
2023-05-07T14:15:33.936Z,25.09
2023-05-07T14:18:01.797Z,25.34
2023-05-07T14:20:29.558Z,25.73
2023-05-07T14:22:58.263Z,25.86
2023-05-07T14:25:25.581Z,25.99
2023-05-07T14:27:52.920Z,25.83
2023-05-07T14:30:20.000Z,25.85
2023-05-07T14:32:47.066Z,25.75
2023-05-07T14:35:14.498Z,25.51
2023-05-07T14:37:41.918Z,25.51
2023-05-07T14:40:12.918Z,25.85
2023-05-07T14:42:41.467Z,25.37
2023-05-07T14:45:09.640Z,25.52
2023-05-07T14:47:36.785Z,25.44
2023-05-07T14:50:04.025Z,25.64
2023-05-07T14:52:30.999Z,25.49
2023-05-07T14:54:58.148Z,25.37
2023-05-07T14:57:25.493Z,25.49
2023-05-07T14:59:52.625Z,25.34
2023-05-07T15:02:21.395Z,25.58
2023-05-07T15:04:49.864Z,25.78
2023-05-07T15:07:17.128Z,25.64
2023-05-07T15:09:44.545Z,25.66
2023-05-07T15:12:12.843Z,25.65
2023-05-07T15:14:40.401Z,25.56
2023-05-07T15:17:08.583Z,25.34
2023-05-07T15:19:35.710Z,25.41
2023-05-07T15:22:05.539Z,25.12
2023-05-07T15:24:32.879Z,25.10
2023-05-07T15:27:00.336Z,25.05
2023-05-07T15:29:27.432Z,25.21
2023-05-07T15:31:54.790Z,24.57
2023-05-07T15:34:23.654Z,25.01
2023-05-07T15:36:50.993Z,24.92
2023-05-07T15:39:18.677Z,25.11
2023-05-07T15:41:46.553Z,25.36
2023-05-07T15:44:13.717Z,24.97
2023-05-07T15:46:40.995Z,25.30
2023-05-07T15:49:08.664Z,24.78
2023-05-07T15:51:36.840Z,24.49
2023-05-07T15:54:04.215Z,24.56
2023-05-07T15:56:33.997Z,24.41
2023-05-07T15:59:01.382Z,24.53
2023-05-07T16:01:29.567Z,24.58
2023-05-07T16:03:57.185Z,24.52
2023-05-07T16:06:28.065Z,24.50
2023-05-07T16:08:55.177Z,24.89
2023-05-07T16:11:26.800Z,24.89
2023-05-07T16:13:54.218Z,25.04
2023-05-07T16:16:21.864Z,25.27
2023-05-07T16:18:55.328Z,25.27
2023-05-07T16:21:22.415Z,25.07
2023-05-07T16:23:50.987Z,24.78
2023-05-07T16:26:18.617Z,24.03
2023-05-07T16:28:45.688Z,24.51
2023-05-07T16:31:12.939Z,24.30
2023-05-07T16:33:40.064Z,24.29
2023-05-07T16:36:07.507Z,24.11
2023-05-07T16:38:34.834Z,24.37
2023-05-07T16:41:02.344Z,24.39
2023-05-07T16:43:29.549Z,24.26
2023-05-07T16:45:56.728Z,24.30
2023-05-07T16:48:23.922Z,24.43
2023-05-07T16:50:51.150Z,24.38
2023-05-07T16:53:18.280Z,24.36
2023-05-07T16:55:45.497Z,24.50
2023-05-07T16:58:13.141Z,24.54
2023-05-07T17:00:49.848Z,24.59
2023-05-07T17:03:17.968Z,24.76
2023-05-07T17:05:45.351Z,24.74
2023-05-07T17:08:16.548Z,24.80
2023-05-07T17:10:43.803Z,24.86
2023-05-07T17:13:10.930Z,24.89
2023-05-07T17:15:38.190Z,24.92
2023-05-07T17:18:05.344Z,25.02
2023-05-07T17:20:32.686Z,24.84
2023-05-07T17:22:59.759Z,24.60
2023-05-07T17:25:26.817Z,24.96
2023-05-07T17:27:53.958Z,24.93
2023-05-07T17:30:21.223Z,25.04
2023-05-07T17:32:48.349Z,24.96
2023-05-07T17:35:15.656Z,24.63
2023-05-07T17:37:47.283Z,24.84
2023-05-07T17:40:14.593Z,24.86
2023-05-07T17:42:41.683Z,24.89
2023-05-07T17:45:09.422Z,24.68
2023-05-07T17:47:36.913Z,24.77
2023-05-07T17:50:09.430Z,24.75
2023-05-07T17:52:41.735Z,24.70
2023-05-07T17:55:09.464Z,24.73
2023-05-07T17:57:37.399Z,24.64
2023-05-07T18:00:08.213Z,24.76
2023-05-07T18:02:35.721Z,24.59
2023-05-07T18:05:03.792Z,24.94
2023-05-07T18:07:30.895Z,24.95
2023-05-07T18:09:58.286Z,24.91
2023-05-07T18:12:27.711Z,24.63
2023-05-07T18:14:58.585Z,24.67
2023-05-07T18:17:28.797Z,24.35
2023-05-07T18:19:56.437Z,24.10
2023-05-07T18:22:32.970Z,24.04
2023-05-07T18:25:01.847Z,24.13
2023-05-07T18:27:37.231Z,23.74
2023-05-07T18:30:04.889Z,23.62
2023-05-07T18:32:32.646Z,23.28
2023-05-07T18:35:00.501Z,23.00
2023-05-07T18:37:31.512Z,23.19
2023-05-07T18:40:02.035Z,23.06
2023-05-07T18:42:33.423Z,22.81
2023-05-07T18:45:02.000Z,22.97
2023-05-07T18:47:32.239Z,23.07
2023-05-07T18:50:04.642Z,22.98
2023-05-07T18:52:35.398Z,23.05
2023-05-07T18:55:05.140Z,22.71
2023-05-07T18:57:32.275Z,22.77
2023-05-07T18:59:59.398Z,22.68
2023-05-07T19:02:26.598Z,22.62
2023-05-07T19:04:53.797Z,22.73
2023-05-07T19:07:21.158Z,22.44
2023-05-07T19:10:01.211Z,22.65
2023-05-07T19:12:31.204Z,22.39
2023-05-07T19:14:58.505Z,22.31
2023-05-07T19:17:25.687Z,22.35
2023-05-07T19:19:53.143Z,22.35
2023-05-07T19:22:20.189Z,22.40
2023-05-07T19:24:47.542Z,22.39
2023-05-07T19:27:14.864Z,22.27
2023-05-07T19:29:44.152Z,22.49
2023-05-07T19:32:11.389Z,22.35
2023-05-07T19:34:40.159Z,22.55
2023-05-07T19:37:07.321Z,22.40
2023-05-07T19:39:34.625Z,22.54
2023-05-07T19:42:02.056Z,22.66
2023-05-07T19:44:29.761Z,22.39
2023-05-07T19:46:59.451Z,22.71
2023-05-07T19:49:27.190Z,22.52
2023-05-07T19:51:54.862Z,22.58
2023-05-07T19:54:22.770Z,22.56
2023-05-07T19:56:50.069Z,22.26
2023-05-07T19:59:17.361Z,22.19
2023-05-07T20:01:47.739Z,22.10
2023-05-07T20:04:15.606Z,22.30
2023-05-07T20:06:44.670Z,22.46
2023-05-07T20:09:13.099Z,22.40
2023-05-07T20:11:44.871Z,22.35
2023-05-07T20:14:13.394Z,22.16
2023-05-07T20:16:41.285Z,22.28
2023-05-07T20:19:11.424Z,22.42
2023-05-07T20:21:38.534Z,22.52
2023-05-07T20:24:08.514Z,22.35
2023-05-07T20:29:03.630Z,22.50
2023-05-07T20:31:32.501Z,22.57
2023-05-07T20:33:59.964Z,22.47
2023-05-07T20:36:27.012Z,22.63
2023-05-07T20:38:54.161Z,22.72
2023-05-07T20:41:25.681Z,22.78
2023-05-07T20:43:52.793Z,22.63
2023-05-07T20:46:23.388Z,22.85
2023-05-07T20:48:50.961Z,22.85
2023-05-07T20:51:18.315Z,22.71
2023-05-07T20:53:47.515Z,22.87
2023-05-07T20:56:15.769Z,23.03
2023-05-07T20:58:42.955Z,22.98
2023-05-07T21:01:10.183Z,22.76
2023-05-07T21:03:37.372Z,22.90
2023-05-07T21:06:04.685Z,22.83
2023-05-07T21:08:32.664Z,23.02
2023-05-07T21:10:59.720Z,23.01
2023-05-07T21:13:27.602Z,23.01
2023-05-07T21:15:54.791Z,22.99
2023-05-07T21:18:21.946Z,22.66
2023-05-07T21:20:49.111Z,22.95
2023-05-07T21:23:16.445Z,22.94
2023-05-07T21:25:47.310Z,23.01
2023-05-07T21:28:14.586Z,22.98
2023-05-07T21:30:41.708Z,23.04
2023-05-07T21:33:09.163Z,22.92
2023-05-07T21:35:36.847Z,22.95
2023-05-07T21:38:04.213Z,23.06
2023-05-07T21:40:31.746Z,23.11
2023-05-07T21:43:00.580Z,22.99
2023-05-07T21:45:27.958Z,23.09
2023-05-07T21:47:55.648Z,23.09
2023-05-07T21:50:22.847Z,23.12
2023-05-07T21:52:50.368Z,23.11
2023-05-07T21:55:20.841Z,23.06
2023-05-07T21:58:01.156Z,23.04
2023-05-07T22:00:32.117Z,23.10
2023-05-07T22:02:59.276Z,23.08
2023-05-07T22:05:26.382Z,23.09
2023-05-07T22:07:53.463Z,23.17
2023-05-07T22:10:23.131Z,23.16
2023-05-07T22:12:50.483Z,23.19
2023-05-07T22:15:18.003Z,23.16
2023-05-07T22:17:46.416Z,23.09
2023-05-07T22:20:13.746Z,23.09
2023-05-07T22:22:53.409Z,23.05
2023-05-07T22:25:24.909Z,23.12
2023-05-07T22:27:52.204Z,23.06
2023-05-07T22:30:19.378Z,23.07
2023-05-07T22:32:46.641Z,23.10
2023-05-07T22:35:14.138Z,23.10
2023-05-07T22:37:41.388Z,23.09
2023-05-07T22:40:09.114Z,23.04
2023-05-07T22:42:36.346Z,22.93
2023-05-07T22:45:03.541Z,22.97
2023-05-07T22:47:33.891Z,23.04
2023-05-07T22:50:01.174Z,22.76
2023-05-07T22:52:28.498Z,22.74
2023-05-07T22:54:55.778Z,22.77
2023-05-07T22:57:22.992Z,22.65
2023-05-07T22:59:55.249Z,22.74
2023-05-07T23:02:23.051Z,22.73
2023-05-07T23:04:52.973Z,22.70
2023-05-07T23:07:20.249Z,22.78
2023-05-07T23:09:47.426Z,22.71
2023-05-07T23:12:14.474Z,22.77
2023-05-07T23:14:41.736Z,22.80
2023-05-07T23:17:08.903Z,22.85
2023-05-07T23:19:37.165Z,22.87
2023-05-07T23:22:04.473Z,22.69
2023-05-07T23:24:31.587Z,22.77
2023-05-07T23:26:58.725Z,22.67
2023-05-07T23:29:25.950Z,22.76
2023-05-07T23:31:53.063Z,22.88
2023-05-07T23:34:24.164Z,22.83
2023-05-07T23:36:51.911Z,22.97
2023-05-07T23:39:19.680Z,22.85
2023-05-07T23:41:47.019Z,22.97
2023-05-07T23:44:16.668Z,22.91
2023-05-07T23:46:44.771Z,22.97
2023-05-07T23:49:12.127Z,22.93
2023-05-07T23:51:39.429Z,22.91
2023-05-07T23:54:06.883Z,22.85
2023-05-07T23:56:34.210Z,22.88
2023-05-07T23:59:01.329Z,22.78
